createdAt,value
2022-10-10T00:02:33.041Z,1.92
2022-10-10T00:06:36.176Z,1.88
2022-10-10T00:10:40.645Z,1.95
2022-10-10T00:14:43.696Z,1.80
2022-10-10T00:18:46.977Z,2.13
2022-10-10T00:22:50.827Z,1.92
2022-10-10T00:26:55.402Z,2.15
2022-10-10T00:30:58.435Z,1.92
2022-10-10T00:35:01.636Z,2.40
2022-10-10T00:39:04.681Z,1.90
2022-10-10T00:43:11.489Z,2.03
2022-10-10T00:47:14.776Z,2.20
2022-10-10T00:51:20.851Z,1.77
2022-10-10T00:55:24.184Z,1.67
2022-10-10T00:59:32.975Z,2.08
2022-10-10T01:03:36.130Z,1.50
2022-10-10T01:07:40.727Z,2.10
2022-10-10T01:11:52.962Z,1.67
2022-10-10T01:16:02.600Z,1.90
2022-10-10T01:20:38.796Z,1.70
2022-10-10T01:24:56.351Z,2.15
2022-10-10T01:29:07.698Z,2.00
2022-10-10T01:33:16.785Z,1.80
2022-10-10T01:37:22.823Z,2.42
2022-10-10T01:41:32.642Z,2.15
2022-10-10T01:45:37.023Z,2.50
2022-10-10T01:49:43.998Z,2.42
2022-10-10T01:53:55.399Z,2.47
2022-10-10T01:58:13.634Z,2.60
2022-10-10T02:02:26.298Z,2.47
2022-10-10T02:06:37.107Z,2.63
2022-10-10T02:10:47.677Z,2.10
2022-10-10T02:14:54.282Z,2.22
2022-10-10T02:19:00.871Z,2.63
2022-10-10T02:23:04.470Z,2.50
2022-10-10T02:27:12.665Z,2.53
2022-10-10T02:31:18.563Z,2.70
2022-10-10T02:35:26.256Z,2.72
2022-10-10T02:39:33.502Z,2.70
2022-10-10T02:43:37.532Z,2.90
2022-10-10T02:47:40.544Z,2.67
2022-10-10T02:51:45.113Z,2.95
2022-10-10T02:55:48.314Z,2.80
2022-10-10T02:59:51.298Z,3.22
2022-10-10T03:03:54.575Z,2.97
2022-10-10T03:07:58.951Z,2.72
2022-10-10T03:12:02.276Z,3.03
2022-10-10T03:16:06.811Z,3.10
2022-10-10T03:20:11.490Z,2.85
2022-10-10T03:24:16.640Z,2.63
2022-10-10T03:28:19.875Z,2.63
2022-10-10T03:32:22.985Z,2.40
2022-10-10T03:36:26.697Z,2.80
2022-10-10T03:40:32.085Z,2.30
2022-10-10T03:44:35.176Z,2.20
2022-10-10T03:48:38.384Z,2.30
2022-10-10T03:52:41.276Z,2.30
2022-10-10T03:56:45.623Z,2.10
2022-10-10T04:00:54.833Z,1.77
2022-10-10T04:04:57.997Z,2.05
2022-10-10T04:09:00.957Z,1.80
2022-10-10T04:13:05.900Z,1.80
2022-10-10T04:17:09.244Z,1.98
2022-10-10T04:21:13.168Z,1.90
2022-10-10T04:25:16.211Z,1.90
2022-10-10T04:29:20.618Z,1.60
2022-10-10T04:33:23.612Z,1.95
2022-10-10T04:37:27.070Z,1.65
2022-10-10T04:41:30.180Z,1.83
2022-10-10T04:45:37.531Z,1.85
2022-10-10T04:49:42.055Z,1.73
2022-10-10T04:53:50.124Z,1.88
2022-10-10T04:57:53.504Z,1.67
2022-10-10T05:02:01.559Z,2.08
2022-10-10T05:06:05.042Z,1.60
2022-10-10T05:10:08.755Z,1.52
2022-10-10T05:14:11.763Z,1.75
2022-10-10T05:18:16.371Z,1.55
2022-10-10T05:22:19.369Z,2.17
2022-10-10T05:26:22.628Z,1.80
2022-10-10T05:30:25.639Z,1.90
2022-10-10T05:34:30.863Z,1.80
2022-10-10T05:38:34.066Z,1.83
2022-10-10T05:42:37.379Z,2.20
2022-10-10T05:46:40.617Z,1.48
2022-10-10T05:50:50.257Z,1.80
2022-10-10T05:54:53.965Z,1.80
2022-10-10T05:58:56.980Z,2.05
2022-10-10T06:03:00.299Z,1.70
2022-10-10T06:07:04.888Z,2.10
2022-10-10T06:11:09.081Z,1.63
2022-10-10T06:15:13.163Z,1.80
2022-10-10T06:19:17.165Z,2.03
2022-10-10T06:23:22.063Z,1.80
2022-10-10T06:27:25.134Z,1.58
2022-10-10T06:31:28.351Z,1.60
2022-10-10T06:35:31.590Z,2.03
2022-10-10T06:39:36.020Z,1.80
2022-10-10T06:43:39.088Z,1.60
2022-10-10T06:47:42.111Z,1.65
2022-10-10T06:51:45.100Z,1.50
2022-10-10T06:55:49.464Z,1.42
2022-10-10T06:59:52.658Z,1.75
2022-10-10T07:03:55.660Z,1.92
2022-10-10T07:07:58.710Z,1.70
2022-10-10T07:12:03.161Z,1.70
2022-10-10T07:16:06.639Z,2.05
2022-10-10T07:20:10.404Z,2.13
2022-10-10T07:24:13.414Z,1.52
2022-10-10T07:28:18.016Z,1.80
2022-10-10T07:32:21.069Z,1.50
2022-10-10T07:36:24.286Z,1.50
2022-10-10T07:40:27.285Z,1.48
2022-10-10T07:44:34.618Z,1.58
2022-10-10T07:48:37.863Z,1.92
2022-10-10T07:52:41.559Z,1.85
2022-10-10T07:56:44.532Z,2.13
2022-10-10T08:00:50.428Z,1.88
2022-10-10T08:04:53.686Z,1.70
2022-10-10T08:08:56.766Z,1.70
2022-10-10T08:12:59.714Z,1.30
2022-10-10T08:17:04.435Z,1.98
2022-10-10T08:21:10.311Z,1.80
2022-10-10T08:25:13.525Z,1.60
2022-10-10T08:29:16.660Z,1.80
2022-10-10T08:33:21.153Z,1.60
2022-10-10T08:37:30.270Z,1.55
2022-10-10T08:41:42.116Z,1.65
2022-10-10T08:45:45.546Z,1.88
2022-10-10T08:49:53.085Z,1.60
2022-10-10T08:54:00.112Z,2.00
2022-10-10T08:58:10.901Z,1.65
2022-10-10T09:02:43.735Z,2.10
2022-10-10T09:07:03.155Z,2.13
2022-10-10T09:11:17.267Z,2.30
2022-10-10T09:15:25.312Z,2.20
2022-10-10T09:19:40.270Z,2.20
2022-10-10T09:23:50.330Z,2.17
2022-10-10T09:28:02.707Z,2.03
2022-10-10T09:32:11.133Z,2.53
2022-10-10T09:36:19.814Z,2.22
2022-10-10T09:40:29.633Z,2.38
2022-10-10T09:44:34.006Z,2.40
2022-10-10T09:48:39.656Z,2.08
2022-10-10T09:52:44.326Z,2.03
2022-10-10T09:56:52.836Z,2.22
2022-10-10T10:00:56.607Z,2.20
2022-10-10T10:05:00.487Z,2.40
2022-10-10T10:09:06.078Z,2.20
2022-10-10T10:13:16.234Z,1.90
2022-10-10T10:17:24.331Z,2.47
2022-10-10T10:21:28.889Z,2.15
2022-10-10T10:25:37.069Z,2.30
2022-10-10T10:29:47.930Z,2.15
2022-10-10T10:34:01.497Z,2.30
2022-10-10T10:38:18.408Z,2.30
2022-10-10T10:42:40.402Z,2.20
2022-10-10T10:46:55.486Z,2.20
2022-10-10T10:51:06.291Z,2.03
2022-10-10T10:55:27.180Z,2.58
2022-10-10T11:00:25.976Z,2.15
2022-10-10T11:05:23.666Z,2.20
2022-10-10T11:08:59.132Z,2.20
2022-10-10T11:13:08.092Z,1.90
2022-10-10T11:17:15.871Z,2.10
2022-10-10T11:21:23.887Z,2.28
2022-10-10T11:25:31.947Z,2.17
2022-10-10T11:29:48.449Z,2.10
2022-10-10T11:33:57.413Z,2.28
2022-10-10T11:38:12.122Z,2.10
2022-10-10T11:42:20.003Z,1.88
2022-10-10T11:46:30.196Z,1.85
2022-10-10T11:50:37.321Z,2.08
2022-10-10T11:54:47.335Z,2.33
2022-10-10T11:58:58.734Z,2.10
2022-10-10T12:03:02.024Z,2.30
2022-10-10T12:07:08.794Z,2.30
2022-10-10T12:11:22.565Z,2.38
2022-10-10T12:15:30.335Z,1.98
2022-10-10T12:19:33.453Z,2.78
2022-10-10T12:23:37.311Z,2.25
2022-10-10T12:27:49.258Z,2.60
2022-10-10T12:32:24.295Z,2.50
2022-10-10T12:37:12.409Z,2.20
2022-10-10T12:41:16.673Z,2.70
2022-10-10T12:45:57.580Z,2.47
2022-10-10T12:50:05.173Z,2.08
2022-10-10T12:54:20.342Z,2.30
2022-10-10T12:58:27.994Z,2.47
2022-10-10T13:02:31.457Z,2.70
2022-10-10T13:06:39.638Z,2.50
2022-10-10T13:10:43.168Z,2.40
2022-10-10T13:14:47.147Z,2.20
2022-10-10T13:18:52.857Z,2.38
2022-10-10T13:22:58.976Z,2.75
2022-10-10T13:27:02.559Z,2.22
2022-10-10T13:31:14.020Z,2.40
2022-10-10T13:35:21.138Z,2.30
2022-10-10T13:39:26.924Z,2.40
2022-10-10T13:43:31.576Z,2.53
2022-10-10T13:47:53.730Z,2.65
2022-10-10T13:52:07.021Z,2.13
2022-10-10T13:56:17.026Z,2.22
2022-10-10T14:00:23.709Z,2.85
2022-10-10T14:04:31.311Z,2.13
2022-10-10T14:08:35.165Z,2.35
2022-10-10T14:12:44.159Z,2.45
2022-10-10T14:16:57.605Z,2.30
2022-10-10T14:21:01.270Z,2.22
2022-10-10T14:25:04.907Z,2.10
2022-10-10T14:29:12.919Z,2.22
2022-10-10T14:33:17.876Z,2.17
2022-10-10T14:37:24.479Z,2.40
2022-10-10T14:41:27.535Z,2.28
2022-10-10T14:45:31.933Z,2.30
2022-10-10T14:49:34.979Z,2.60
2022-10-10T14:53:38.279Z,2.50
2022-10-10T14:57:41.731Z,2.50
2022-10-10T15:01:46.562Z,2.67
2022-10-10T15:05:50.667Z,2.50
2022-10-10T15:14:16.940Z,2.45
2022-10-10T15:18:52.086Z,2.50
2022-10-10T15:22:46.007Z,2.47
2022-10-10T15:26:49.057Z,2.15
2022-10-10T15:30:52.796Z,2.42
2022-10-10T15:34:57.250Z,2.53
2022-10-10T15:39:00.551Z,2.63
2022-10-10T15:43:05.211Z,2.42
2022-10-10T15:47:08.300Z,2.45
2022-10-10T15:51:13.348Z,2.35
2022-10-10T15:55:17.091Z,2.70
2022-10-10T16:03:24.720Z,2.65
2022-10-10T16:07:31.342Z,2.30
2022-10-10T16:11:36.981Z,2.58
2022-10-10T16:15:39.965Z,2.72
2022-10-10T16:19:43.172Z,2.65
2022-10-10T16:23:52.141Z,3.08
2022-10-10T16:27:57.458Z,2.42
2022-10-10T16:32:00.656Z,3.30
2022-10-10T16:36:09.424Z,2.47
2022-10-10T16:40:14.464Z,2.75
2022-10-10T16:44:18.595Z,2.60
2022-10-10T16:48:21.858Z,2.70
2022-10-10T16:52:25.026Z,2.80
2022-10-10T16:56:30.953Z,2.67
2022-10-10T17:00:34.517Z,2.60
2022-10-10T17:04:37.788Z,2.75
2022-10-10T17:08:41.371Z,2.90
2022-10-10T17:12:46.801Z,2.80
2022-10-10T17:21:15.322Z,2.70
2022-10-10T17:25:18.746Z,2.70
2022-10-10T17:29:23.757Z,3.00
2022-10-10T17:33:26.835Z,2.83
2022-10-10T17:37:29.918Z,2.70
2022-10-10T17:41:33.675Z,2.70
2022-10-10T17:45:39.783Z,2.85
2022-10-10T17:49:46.540Z,2.80
2022-10-10T17:53:50.531Z,2.47
2022-10-10T17:57:53.772Z,2.15
2022-10-10T18:01:58.430Z,2.55
2022-10-10T18:06:06.846Z,2.30
2022-10-10T18:10:10.826Z,2.78
2022-10-10T18:14:13.966Z,2.65
2022-10-10T18:18:19.083Z,2.63
2022-10-10T18:22:22.223Z,2.75
2022-10-10T18:26:29.583Z,2.95
2022-10-10T18:30:34.344Z,2.63
2022-10-10T18:34:38.968Z,2.92
2022-10-10T18:38:42.889Z,2.63
2022-10-10T18:42:46.043Z,2.97
2022-10-10T18:46:50.658Z,2.80
2022-10-10T18:51:01.677Z,2.90
2022-10-10T18:55:05.373Z,2.88
2022-10-10T18:59:12.615Z,2.58
2022-10-10T19:03:16.076Z,2.75
2022-10-10T19:07:20.902Z,2.85
2022-10-10T19:11:26.096Z,2.60
2022-10-10T19:15:29.148Z,2.78
2022-10-10T19:19:32.341Z,2.95
2022-10-10T19:23:37.954Z,2.72
2022-10-10T19:27:41.001Z,3.15
2022-10-10T19:31:46.173Z,2.80
2022-10-10T19:35:52.430Z,2.80
2022-10-10T19:39:57.102Z,2.63
2022-10-10T19:44:04.734Z,2.55
2022-10-10T19:48:07.989Z,3.10
2022-10-10T19:52:11.289Z,2.67
2022-10-10T19:56:20.436Z,2.72
2022-10-10T20:00:23.460Z,3.08
2022-10-10T20:04:26.644Z,2.88
2022-10-10T20:08:30.114Z,3.40
2022-10-10T20:12:34.633Z,3.30
2022-10-10T20:16:37.772Z,3.17
2022-10-10T20:20:41.980Z,3.10
2022-10-10T20:24:45.085Z,3.22
2022-10-10T20:28:50.655Z,3.38
2022-10-10T20:32:55.961Z,3.17
2022-10-10T20:37:00.138Z,3.55
2022-10-10T20:41:06.887Z,3.05
2022-10-10T20:45:11.755Z,3.17
2022-10-10T20:49:17.398Z,3.50
2022-10-10T20:53:23.708Z,3.33
2022-10-10T20:57:27.167Z,3.80
2022-10-10T21:01:31.833Z,3.38
2022-10-10T21:05:34.868Z,3.17
2022-10-10T21:09:37.978Z,3.13
2022-10-10T21:13:43.985Z,3.58
2022-10-10T21:17:50.875Z,3.10
2022-10-10T21:21:53.850Z,2.95
2022-10-10T21:25:57.552Z,3.30
2022-10-10T21:30:01.091Z,3.03
2022-10-10T21:34:08.299Z,3.63
2022-10-10T21:38:11.379Z,3.05
2022-10-10T21:42:14.331Z,3.20
2022-10-10T21:46:19.290Z,3.25
2022-10-10T21:50:23.828Z,3.35
2022-10-10T21:54:27.174Z,2.88
2022-10-10T21:58:30.508Z,3.38
2022-10-10T22:02:33.592Z,2.63
2022-10-10T22:06:38.424Z,3.10
2022-10-10T22:10:42.045Z,2.50
2022-10-10T22:14:45.100Z,3.22
2022-10-10T22:18:48.246Z,3.25
2022-10-10T22:22:52.662Z,3.38
2022-10-10T22:26:55.893Z,2.67
2022-10-10T22:30:59.027Z,2.85
2022-10-10T22:35:02.438Z,3.17
2022-10-10T22:39:10.953Z,2.85
2022-10-10T22:43:14.174Z,3.03
2022-10-10T22:47:17.369Z,2.58
2022-10-10T22:51:20.875Z,2.95
2022-10-10T22:55:25.550Z,2.80
2022-10-10T22:59:28.987Z,3.00
2022-10-10T23:03:31.993Z,2.75
2022-10-10T23:07:35.547Z,3.03
2022-10-10T23:11:40.067Z,2.85
2022-10-10T23:15:43.273Z,2.97
2022-10-10T23:19:46.273Z,3.20
2022-10-10T23:23:49.308Z,3.28
2022-10-10T23:27:53.758Z,3.05
2022-10-10T23:31:57.330Z,2.95
2022-10-10T23:36:02.490Z,3.40
2022-10-10T23:40:07.402Z,2.78
2022-10-10T23:44:11.785Z,3.20
2022-10-10T23:48:15.126Z,2.72
2022-10-10T23:52:18.298Z,3.13
2022-10-10T23:56:21.531Z,2.97
